Rockledge, Alabama
Current Conditions -  °F | °C
As of 1:35 AM on Wednesday 26 Nov 2014 (Local Time) from KGAD Reporting Station
Overcast Overcast  
Wind Chill:   Ceiling: 11000
Heat Index:   Visibility: 10mi
Dew Point: -2°   Wind: 6mph
Humidity: 53%   Direction: 330°NNW
Pressure: 30.05"   Gusts: NA
Location:  34.0771°N, 86.0689°W
Report Text: KGAD 260735Z 33005KT 10SM OVC110 07/M02 A3005 RMK AO1
Loading
Personal Weather Stations






























Interactive Weather Map New forecast layout! Learn more

10-Day Weather Forecast

Advertisements
Track Severe Weather on mobile